sensor_id;sensor_type;location;lat;lon;timestamp;temperature;humidity
6102;DHT22;3081;50.584;7.032;2023-02-01T00:02:03;6.50;99.90
6102;DHT22;3081;50.584;7.032;2023-02-01T00:04:30;6.50;99.90
6102;DHT22;3081;50.584;7.032;2023-02-01T00:06:57;6.50;99.90
6102;DHT22;3081;50.584;7.032;2023-02-01T00:09:25;6.60;99.90
6102;DHT22;3081;50.584;7.032;2023-02-01T00:11:52;6.60;99.90
6102;DHT22;3081;50.584;7.032;2023-02-01T00:14:19;6.60;99.90
6102;DHT22;3081;50.584;7.032;2023-02-01T00:16:46;6.60;99.90
6102;DHT22;3081;50.584;7.032;2023-02-01T00:19:14;6.60;99.90
6102;DHT22;3081;50.584;7.032;2023-02-01T00:21:42;6.70;99.90
6102;DHT22;3081;50.584;7.032;2023-02-01T00:24:11;6.70;99.90
6102;DHT22;3081;50.584;7.032;2023-02-01T00:26:41;6.60;99.90
6102;DHT22;3081;50.584;7.032;2023-02-01T00:29:11;6.60;99.90
6102;DHT22;3081;50.584;7.032;2023-02-01T00:31:39;6.60;99.90
6102;DHT22;3081;50.584;7.032;2023-02-01T00:34:05;6.60;99.90
6102;DHT22;3081;50.584;7.032;2023-02-01T00:36:34;6.50;99.90
6102;DHT22;3081;50.584;7.032;2023-02-01T00:39:01;6.50;99.90
6102;DHT22;3081;50.584;7.032;2023-02-01T00:41:28;6.50;99.90
6102;DHT22;3081;50.584;7.032;2023-02-01T00:43:56;6.60;99.90
6102;DHT22;3081;50.584;7.032;2023-02-01T00:46:23;6.60;99.90
6102;DHT22;3081;50.584;7.032;2023-02-01T00:48:50;6.60;99.90
6102;DHT22;3081;50.584;7.032;2023-02-01T00:51:19;6.60;99.90
6102;DHT22;3081;50.584;7.032;2023-02-01T00:53:47;6.60;99.90
6102;DHT22;3081;50.584;7.032;2023-02-01T00:56:14;6.70;99.90
6102;DHT22;3081;50.584;7.032;2023-02-01T00:58:41;6.70;99.90
6102;DHT22;3081;50.584;7.032;2023-02-01T01:01:14;6.70;99.90
6102;DHT22;3081;50.584;7.032;2023-02-01T01:03:43;6.70;99.90
6102;DHT22;3081;50.584;7.032;2023-02-01T01:06:12;6.80;99.90
6102;DHT22;3081;50.584;7.032;2023-02-01T01:08:40;6.70;99.90
6102;DHT22;3081;50.584;7.032;2023-02-01T01:11:08;6.70;99.90
6102;DHT22;3081;50.584;7.032;2023-02-01T01:13:36;6.70;99.90
6102;DHT22;3081;50.584;7.032;2023-02-01T01:16:04;6.70;99.90
6102;DHT22;3081;50.584;7.032;2023-02-01T01:18:33;6.80;99.90
6102;DHT22;3081;50.584;7.032;2023-02-01T01:21:00;6.70;99.90
6102;DHT22;3081;50.584;7.032;2023-02-01T01:23:27;6.70;99.90
6102;DHT22;3081;50.584;7.032;2023-02-01T01:25:54;6.70;99.90
6102;DHT22;3081;50.584;7.032;2023-02-01T01:28:21;6.70;99.90
6102;DHT22;3081;50.584;7.032;2023-02-01T01:30:48;6.70;99.90
6102;DHT22;3081;50.584;7.032;2023-02-01T01:33:15;6.70;99.90
6102;DHT22;3081;50.584;7.032;2023-02-01T01:35:44;6.70;99.90
6102;DHT22;3081;50.584;7.032;2023-02-01T01:38:11;6.70;99.90
6102;DHT22;3081;50.584;7.032;2023-02-01T01:40:38;6.70;99.90
6102;DHT22;3081;50.584;7.032;2023-02-01T01:43:13;6.70;99.90
6102;DHT22;3081;50.584;7.032;2023-02-01T01:45:40;6.70;99.90
6102;DHT22;3081;50.584;7.032;2023-02-01T01:48:11;6.60;99.90
6102;DHT22;3081;50.584;7.032;2023-02-01T01:50:45;6.60;99.90
6102;DHT22;3081;50.584;7.032;2023-02-01T01:53:18;6.60;99.90
6102;DHT22;3081;50.584;7.032;2023-02-01T01:55:48;6.60;99.90
6102;DHT22;3081;50.584;7.032;2023-02-01T01:58:19;6.60;99.90
6102;DHT22;3081;50.584;7.032;2023-02-01T02:00:47;6.60;99.90
6102;DHT22;3081;50.584;7.032;2023-02-01T02:03:17;6.60;99.90
6102;DHT22;3081;50.584;7.032;2023-02-01T02:05:49;6.60;99.90
6102;DHT22;3081;50.584;7.032;2023-02-01T02:08:17;6.60;99.90
6102;DHT22;3081;50.584;7.032;2023-02-01T02:10:46;6.60;99.90
6102;DHT22;3081;50.584;7.032;2023-02-01T02:13:31;6.60;99.90
6102;DHT22;3081;50.584;7.032;2023-02-01T02:16:19;6.60;99.90
6102;DHT22;3081;50.584;7.032;2023-02-01T02:18:55;6.60;99.90
6102;DHT22;3081;50.584;7.032;2023-02-01T02:21:38;6.60;99.90
6102;DHT22;3081;50.584;7.032;2023-02-01T02:24:28;6.60;99.90
6102;DHT22;3081;50.584;7.032;2023-02-01T02:27:13;6.60;99.90
6102;DHT22;3081;50.584;7.032;2023-02-01T02:35:56;6.60;99.90
6102;DHT22;3081;50.584;7.032;2023-02-01T02:38:30;6.60;99.90
6102;DHT22;3081;50.584;7.032;2023-02-01T02:41:07;6.60;99.90
6102;DHT22;3081;50.584;7.032;2023-02-01T02:43:40;6.60;99.90
6102;DHT22;3081;50.584;7.032;2023-02-01T02:46:32;6.60;99.90
6102;DHT22;3081;50.584;7.032;2023-02-01T02:49:21;6.60;99.90
6102;DHT22;3081;50.584;7.032;2023-02-01T02:51:53;6.60;99.90
6102;DHT22;3081;50.584;7.032;2023-02-01T02:54:41;6.60;99.90
6102;DHT22;3081;50.584;7.032;2023-02-01T02:57:14;6.60;99.90
6102;DHT22;3081;50.584;7.032;2023-02-01T03:00:03;6.60;99.90
6102;DHT22;3081;50.584;7.032;2023-02-01T03:02:48;6.60;99.90
6102;DHT22;3081;50.584;7.032;2023-02-01T03:05:33;6.70;99.90
6102;DHT22;3081;50.584;7.032;2023-02-01T03:08:05;6.60;99.90
6102;DHT22;3081;50.584;7.032;2023-02-01T03:10:48;6.60;99.90
6102;DHT22;3081;50.584;7.032;2023-02-01T03:13:24;6.60;99.90
6102;DHT22;3081;50.584;7.032;2023-02-01T03:15:56;6.60;99.90
6102;DHT22;3081;50.584;7.032;2023-02-01T03:18:30;6.60;99.90
6102;DHT22;3081;50.584;7.032;2023-02-01T03:21:00;6.50;99.90
6102;DHT22;3081;50.584;7.032;2023-02-01T03:23:32;6.50;99.90
6102;DHT22;3081;50.584;7.032;2023-02-01T03:26:01;6.50;99.90
6102;DHT22;3081;50.584;7.032;2023-02-01T03:28:33;6.50;99.90
6102;DHT22;3081;50.584;7.032;2023-02-01T03:31:01;6.50;99.90
6102;DHT22;3081;50.584;7.032;2023-02-01T03:33:29;6.50;99.90
6102;DHT22;3081;50.584;7.032;2023-02-01T03:36:11;6.50;99.90
6102;DHT22;3081;50.584;7.032;2023-02-01T03:38:47;6.50;99.90
6102;DHT22;3081;50.584;7.032;2023-02-01T03:41:20;6.50;99.90
6102;DHT22;3081;50.584;7.032;2023-02-01T03:43:52;6.50;99.90
6102;DHT22;3081;50.584;7.032;2023-02-01T03:46:28;6.50;99.90
6102;DHT22;3081;50.584;7.032;2023-02-01T03:49:00;6.50;99.90
6102;DHT22;3081;50.584;7.032;2023-02-01T03:51:28;6.50;99.90
6102;DHT22;3081;50.584;7.032;2023-02-01T03:53:58;6.60;99.90
6102;DHT22;3081;50.584;7.032;2023-02-01T03:56:27;6.60;99.90
6102;DHT22;3081;50.584;7.032;2023-02-01T03:58:55;6.70;99.90
6102;DHT22;3081;50.584;7.032;2023-02-01T04:01:27;6.70;99.90
6102;DHT22;3081;50.584;7.032;2023-02-01T04:03:54;6.70;99.90
6102;DHT22;3081;50.584;7.032;2023-02-01T04:06:21;6.80;99.90
6102;DHT22;3081;50.584;7.032;2023-02-01T04:08:48;6.70;99.90
6102;DHT22;3081;50.584;7.032;2023-02-01T04:11:16;6.70;99.90
6102;DHT22;3081;50.584;7.032;2023-02-01T04:13:43;6.70;99.90
6102;DHT22;3081;50.584;7.032;2023-02-01T04:16:10;6.80;99.90
6102;DHT22;3081;50.584;7.032;2023-02-01T04:18:37;6.70;99.90
6102;DHT22;3081;50.584;7.032;2023-02-01T04:21:05;6.70;99.90
6102;DHT22;3081;50.584;7.032;2023-02-01T04:23:31;6.70;99.90
6102;DHT22;3081;50.584;7.032;2023-02-01T04:25:59;6.60;99.90
6102;DHT22;3081;50.584;7.032;2023-02-01T04:28:28;6.60;99.90
6102;DHT22;3081;50.584;7.032;2023-02-01T04:30:55;6.60;99.90
6102;DHT22;3081;50.584;7.032;2023-02-01T04:33:22;6.60;99.90
6102;DHT22;3081;50.584;7.032;2023-02-01T04:35:49;6.50;99.90
6102;DHT22;3081;50.584;7.032;2023-02-01T04:38:16;6.40;99.90
6102;DHT22;3081;50.584;7.032;2023-02-01T04:40:43;6.50;99.90
6102;DHT22;3081;50.584;7.032;2023-02-01T04:43:12;6.30;99.90
6102;DHT22;3081;50.584;7.032;2023-02-01T04:45:41;6.30;99.90
6102;DHT22;3081;50.584;7.032;2023-02-01T04:48:08;6.20;99.90
6102;DHT22;3081;50.584;7.032;2023-02-01T04:50:35;6.20;99.90
6102;DHT22;3081;50.584;7.032;2023-02-01T04:53:02;6.20;99.90
6102;DHT22;3081;50.584;7.032;2023-02-01T04:55:29;6.10;99.90
6102;DHT22;3081;50.584;7.032;2023-02-01T04:57:56;6.10;99.90
6102;DHT22;3081;50.584;7.032;2023-02-01T05:00:23;6.00;99.90
6102;DHT22;3081;50.584;7.032;2023-02-01T05:02:51;6.00;99.90
6102;DHT22;3081;50.584;7.032;2023-02-01T05:05:18;6.00;99.90
6102;DHT22;3081;50.584;7.032;2023-02-01T05:07:45;6.00;99.90
6102;DHT22;3081;50.584;7.032;2023-02-01T05:10:13;6.00;99.90
6102;DHT22;3081;50.584;7.032;2023-02-01T05:12:40;6.00;99.90
6102;DHT22;3081;50.584;7.032;2023-02-01T05:15:24;6.00;99.90
6102;DHT22;3081;50.584;7.032;2023-02-01T05:17:52;5.90;99.90
6102;DHT22;3081;50.584;7.032;2023-02-01T05:20:19;5.90;99.90
6102;DHT22;3081;50.584;7.032;2023-02-01T05:22:46;5.80;99.90
6102;DHT22;3081;50.584;7.032;2023-02-01T05:25:13;5.80;99.90
6102;DHT22;3081;50.584;7.032;2023-02-01T05:27:40;5.80;99.90
6102;DHT22;3081;50.584;7.032;2023-02-01T05:30:08;5.80;99.90
6102;DHT22;3081;50.584;7.032;2023-02-01T05:32:35;5.80;99.90
6102;DHT22;3081;50.584;7.032;2023-02-01T05:35:04;5.80;99.90
6102;DHT22;3081;50.584;7.032;2023-02-01T05:37:31;5.80;99.90
6102;DHT22;3081;50.584;7.032;2023-02-01T05:39:58;5.80;99.90
6102;DHT22;3081;50.584;7.032;2023-02-01T05:42:25;5.70;99.90
6102;DHT22;3081;50.584;7.032;2023-02-01T05:44:52;5.70;99.90
6102;DHT22;3081;50.584;7.032;2023-02-01T05:47:19;5.70;99.90
6102;DHT22;3081;50.584;7.032;2023-02-01T05:49:46;5.70;99.90
6102;DHT22;3081;50.584;7.032;2023-02-01T05:52:14;5.80;99.90
6102;DHT22;3081;50.584;7.032;2023-02-01T05:54:44;5.70;99.90
6102;DHT22;3081;50.584;7.032;2023-02-01T05:57:12;5.70;99.90
6102;DHT22;3081;50.584;7.032;2023-02-01T05:59:39;5.70;99.90
6102;DHT22;3081;50.584;7.032;2023-02-01T06:02:10;5.60;99.90
6102;DHT22;3081;50.584;7.032;2023-02-01T06:04:37;5.60;99.90
6102;DHT22;3081;50.584;7.032;2023-02-01T06:07:05;5.60;99.90
6102;DHT22;3081;50.584;7.032;2023-02-01T06:09:33;5.60;99.90
6102;DHT22;3081;50.584;7.032;2023-02-01T06:12:00;5.60;99.90
6102;DHT22;3081;50.584;7.032;2023-02-01T06:14:27;5.50;99.90
6102;DHT22;3081;50.584;7.032;2023-02-01T06:16:55;5.60;99.90
6102;DHT22;3081;50.584;7.032;2023-02-01T06:19:22;5.50;99.90
6102;DHT22;3081;50.584;7.032;2023-02-01T06:21:49;5.50;99.90
6102;DHT22;3081;50.584;7.032;2023-02-01T06:24:16;5.60;99.90
6102;DHT22;3081;50.584;7.032;2023-02-01T06:26:44;5.50;99.90
6102;DHT22;3081;50.584;7.032;2023-02-01T06:29:12;5.50;99.90
6102;DHT22;3081;50.584;7.032;2023-02-01T06:31:39;5.40;99.90
6102;DHT22;3081;50.584;7.032;2023-02-01T06:34:07;5.40;99.90
6102;DHT22;3081;50.584;7.032;2023-02-01T06:36:34;5.40;99.90
6102;DHT22;3081;50.584;7.032;2023-02-01T06:39:01;5.40;99.90
6102;DHT22;3081;50.584;7.032;2023-02-01T06:41:29;5.40;99.90
6102;DHT22;3081;50.584;7.032;2023-02-01T06:43:57;5.40;99.90
6102;DHT22;3081;50.584;7.032;2023-02-01T06:46:24;5.40;99.90
6102;DHT22;3081;50.584;7.032;2023-02-01T06:48:51;5.40;99.90
6102;DHT22;3081;50.584;7.032;2023-02-01T06:51:19;5.40;99.90
6102;DHT22;3081;50.584;7.032;2023-02-01T06:53:47;5.40;99.90
6102;DHT22;3081;50.584;7.032;2023-02-01T06:56:14;5.40;99.90
6102;DHT22;3081;50.584;7.032;2023-02-01T06:58:41;5.40;99.90
6102;DHT22;3081;50.584;7.032;2023-02-01T07:01:10;5.40;99.90
6102;DHT22;3081;50.584;7.032;2023-02-01T07:03:38;5.40;99.90
6102;DHT22;3081;50.584;7.032;2023-02-01T07:06:06;5.40;99.90
6102;DHT22;3081;50.584;7.032;2023-02-01T07:08:35;5.50;99.90
6102;DHT22;3081;50.584;7.032;2023-02-01T07:11:03;5.50;99.90
6102;DHT22;3081;50.584;7.032;2023-02-01T07:13:30;5.50;99.90
6102;DHT22;3081;50.584;7.032;2023-02-01T07:16:00;5.40;99.90
6102;DHT22;3081;50.584;7.032;2023-02-01T07:18:30;5.40;99.90
6102;DHT22;3081;50.584;7.032;2023-02-01T07:20:57;5.40;99.90
6102;DHT22;3081;50.584;7.032;2023-02-01T07:23:25;5.40;99.90
6102;DHT22;3081;50.584;7.032;2023-02-01T07:25:56;5.40;99.90
6102;DHT22;3081;50.584;7.032;2023-02-01T07:28:23;5.40;99.90
6102;DHT22;3081;50.584;7.032;2023-02-01T07:30:50;5.40;99.90
6102;DHT22;3081;50.584;7.032;2023-02-01T07:33:19;5.50;99.90
6102;DHT22;3081;50.584;7.032;2023-02-01T07:35:48;5.60;99.90
6102;DHT22;3081;50.584;7.032;2023-02-01T07:38:16;5.60;99.90
6102;DHT22;3081;50.584;7.032;2023-02-01T07:40:43;5.60;99.90
6102;DHT22;3081;50.584;7.032;2023-02-01T07:43:10;5.60;99.90
6102;DHT22;3081;50.584;7.032;2023-02-01T07:45:37;5.70;99.90
6102;DHT22;3081;50.584;7.032;2023-02-01T07:48:04;5.70;99.90
6102;DHT22;3081;50.584;7.032;2023-02-01T07:50:31;5.70;99.90
6102;DHT22;3081;50.584;7.032;2023-02-01T07:53:00;5.80;99.90
6102;DHT22;3081;50.584;7.032;2023-02-01T07:55:27;5.80;99.90
6102;DHT22;3081;50.584;7.032;2023-02-01T07:57:57;5.90;99.90
6102;DHT22;3081;50.584;7.032;2023-02-01T08:00:24;5.90;99.90
6102;DHT22;3081;50.584;7.032;2023-02-01T08:03:09;6.00;99.90
6102;DHT22;3081;50.584;7.032;2023-02-01T08:05:35;6.40;99.90
6102;DHT22;3081;50.584;7.032;2023-02-01T08:08:05;6.40;99.90
6102;DHT22;3081;50.584;7.032;2023-02-01T08:10:32;6.50;99.90
6102;DHT22;3081;50.584;7.032;2023-02-01T08:13:00;6.40;99.90
6102;DHT22;3081;50.584;7.032;2023-02-01T08:15:28;6.40;99.90
6102;DHT22;3081;50.584;7.032;2023-02-01T08:17:55;6.50;99.90
6102;DHT22;3081;50.584;7.032;2023-02-01T08:20:24;6.50;99.90
6102;DHT22;3081;50.584;7.032;2023-02-01T08:22:52;6.40;99.90
6102;DHT22;3081;50.584;7.032;2023-02-01T08:25:20;6.40;99.90
6102;DHT22;3081;50.584;7.032;2023-02-01T08:27:47;6.40;99.90
6102;DHT22;3081;50.584;7.032;2023-02-01T08:30:15;6.40;99.90
6102;DHT22;3081;50.584;7.032;2023-02-01T08:32:42;6.40;99.90
6102;DHT22;3081;50.584;7.032;2023-02-01T08:35:09;6.40;99.90
6102;DHT22;3081;50.584;7.032;2023-02-01T08:37:36;6.40;99.90
6102;DHT22;3081;50.584;7.032;2023-02-01T08:40:04;6.50;99.90
6102;DHT22;3081;50.584;7.032;2023-02-01T08:42:32;6.50;99.90
6102;DHT22;3081;50.584;7.032;2023-02-01T08:45:18;6.50;99.90
6102;DHT22;3081;50.584;7.032;2023-02-01T08:47:45;6.60;99.90
6102;DHT22;3081;50.584;7.032;2023-02-01T08:50:14;6.60;99.90
6102;DHT22;3081;50.584;7.032;2023-02-01T08:52:41;6.60;99.90
6102;DHT22;3081;50.584;7.032;2023-02-01T08:55:08;6.80;99.90
6102;DHT22;3081;50.584;7.032;2023-02-01T08:57:37;7.30;99.90
6102;DHT22;3081;50.584;7.032;2023-02-01T09:00:05;7.20;99.90
6102;DHT22;3081;50.584;7.032;2023-02-01T09:02:33;7.40;99.90
6102;DHT22;3081;50.584;7.032;2023-02-01T09:05:00;7.60;99.90
6102;DHT22;3081;50.584;7.032;2023-02-01T09:07:27;7.70;99.90
6102;DHT22;3081;50.584;7.032;2023-02-01T09:09:54;7.80;99.90
6102;DHT22;3081;50.584;7.032;2023-02-01T09:12:22;7.90;99.90
6102;DHT22;3081;50.584;7.032;2023-02-01T09:14:50;8.00;99.90
6102;DHT22;3081;50.584;7.032;2023-02-01T09:17:17;8.10;99.90
6102;DHT22;3081;50.584;7.032;2023-02-01T09:19:44;8.10;99.90
6102;DHT22;3081;50.584;7.032;2023-02-01T09:22:10;7.90;99.90
6102;DHT22;3081;50.584;7.032;2023-02-01T09:24:37;7.80;99.90
6102;DHT22;3081;50.584;7.032;2023-02-01T09:27:04;7.80;99.90
6102;DHT22;3081;50.584;7.032;2023-02-01T09:29:31;7.60;99.90
6102;DHT22;3081;50.584;7.032;2023-02-01T09:31:59;7.40;99.90
6102;DHT22;3081;50.584;7.032;2023-02-01T09:34:26;7.30;99.90
6102;DHT22;3081;50.584;7.032;2023-02-01T09:36:53;7.30;99.90
6102;DHT22;3081;50.584;7.032;2023-02-01T09:39:20;7.40;99.90
6102;DHT22;3081;50.584;7.032;2023-02-01T09:41:55;7.50;99.90
6102;DHT22;3081;50.584;7.032;2023-02-01T09:44:54;7.60;99.90
6102;DHT22;3081;50.584;7.032;2023-02-01T09:47:26;7.90;99.90
6102;DHT22;3081;50.584;7.032;2023-02-01T09:49:57;8.30;99.90
6102;DHT22;3081;50.584;7.032;2023-02-01T09:52:31;8.20;99.90
6102;DHT22;3081;50.584;7.032;2023-02-01T09:55:01;8.00;99.90
6102;DHT22;3081;50.584;7.032;2023-02-01T09:57:40;8.00;99.90
6102;DHT22;3081;50.584;7.032;2023-02-01T10:00:16;8.00;99.90
6102;DHT22;3081;50.584;7.032;2023-02-01T10:02:45;8.00;99.90
6102;DHT22;3081;50.584;7.032;2023-02-01T10:05:15;8.00;99.90
6102;DHT22;3081;50.584;7.032;2023-02-01T10:07:47;8.00;99.90
6102;DHT22;3081;50.584;7.032;2023-02-01T10:10:21;8.00;99.90
6102;DHT22;3081;50.584;7.032;2023-02-01T10:15:55;8.00;99.90
6102;DHT22;3081;50.584;7.032;2023-02-01T10:18:42;8.20;99.90
6102;DHT22;3081;50.584;7.032;2023-02-01T10:21:19;8.10;99.90
6102;DHT22;3081;50.584;7.032;2023-02-01T10:24:02;8.10;99.90
6102;DHT22;3081;50.584;7.032;2023-02-01T10:26:35;7.90;99.90
6102;DHT22;3081;50.584;7.032;2023-02-01T10:29:07;7.90;99.90
6102;DHT22;3081;50.584;7.032;2023-02-01T10:31:39;7.90;99.90
6102;DHT22;3081;50.584;7.032;2023-02-01T10:34:17;7.80;99.90
6102;DHT22;3081;50.584;7.032;2023-02-01T10:36:53;7.70;99.90
6102;DHT22;3081;50.584;7.032;2023-02-01T10:39:20;7.70;99.90
6102;DHT22;3081;50.584;7.032;2023-02-01T10:41:48;7.70;99.90
6102;DHT22;3081;50.584;7.032;2023-02-01T10:44:17;7.70;99.90
6102;DHT22;3081;50.584;7.032;2023-02-01T10:46:44;7.70;99.90
6102;DHT22;3081;50.584;7.032;2023-02-01T10:49:17;7.70;99.90
6102;DHT22;3081;50.584;7.032;2023-02-01T10:51:47;7.60;99.90
6102;DHT22;3081;50.584;7.032;2023-02-01T10:54:18;8.20;99.90
6102;DHT22;3081;50.584;7.032;2023-02-01T10:56:47;9.00;99.90
6102;DHT22;3081;50.584;7.032;2023-02-01T10:59:17;9.70;99.90
6102;DHT22;3081;50.584;7.032;2023-02-01T11:01:46;10.00;99.90
6102;DHT22;3081;50.584;7.032;2023-02-01T11:04:16;10.40;99.90
6102;DHT22;3081;50.584;7.032;2023-02-01T11:06:44;10.80;99.90
6102;DHT22;3081;50.584;7.032;2023-02-01T11:09:18;11.10;99.90
6102;DHT22;3081;50.584;7.032;2023-02-01T11:11:59;10.80;99.90
6102;DHT22;3081;50.584;7.032;2023-02-01T11:14:32;10.20;99.90
6102;DHT22;3081;50.584;7.032;2023-02-01T11:17:01;10.00;99.90
6102;DHT22;3081;50.584;7.032;2023-02-01T11:19:30;10.00;99.90
6102;DHT22;3081;50.584;7.032;2023-02-01T11:21:59;9.50;99.90
6102;DHT22;3081;50.584;7.032;2023-02-01T11:24:29;9.60;99.90
6102;DHT22;3081;50.584;7.032;2023-02-01T11:27:01;9.40;99.90
6102;DHT22;3081;50.584;7.032;2023-02-01T11:29:31;9.10;99.90
6102;DHT22;3081;50.584;7.032;2023-02-01T11:32:02;9.40;99.90
6102;DHT22;3081;50.584;7.032;2023-02-01T11:34:36;9.70;99.90
6102;DHT22;3081;50.584;7.032;2023-02-01T11:37:04;9.50;99.90
6102;DHT22;3081;50.584;7.032;2023-02-01T11:39:33;9.60;99.90
6102;DHT22;3081;50.584;7.032;2023-02-01T11:42:04;9.50;99.90
6102;DHT22;3081;50.584;7.032;2023-02-01T11:44:34;9.20;99.90
6102;DHT22;3081;50.584;7.032;2023-02-01T11:47:25;9.00;99.90
6102;DHT22;3081;50.584;7.032;2023-02-01T11:49:56;9.00;99.90
6102;DHT22;3081;50.584;7.032;2023-02-01T11:52:48;9.00;99.90
6102;DHT22;3081;50.584;7.032;2023-02-01T11:55:37;9.20;99.90
6102;DHT22;3081;50.584;7.032;2023-02-01T11:58:36;9.40;99.90
6102;DHT22;3081;50.584;7.032;2023-02-01T12:01:26;9.30;99.90
6102;DHT22;3081;50.584;7.032;2023-02-01T12:07:16;9.10;99.90
6102;DHT22;3081;50.584;7.032;2023-02-01T12:09:54;9.20;99.90
6102;DHT22;3081;50.584;7.032;2023-02-01T12:12:28;9.20;99.90
6102;DHT22;3081;50.584;7.032;2023-02-01T12:15:14;8.90;99.90
6102;DHT22;3081;50.584;7.032;2023-02-01T12:17:55;8.80;99.90
6102;DHT22;3081;50.584;7.032;2023-02-01T12:20:40;8.80;99.90
6102;DHT22;3081;50.584;7.032;2023-02-01T12:23:34;9.20;99.90
6102;DHT22;3081;50.584;7.032;2023-02-01T12:26:19;9.50;99.90
6102;DHT22;3081;50.584;7.032;2023-02-01T12:29:03;9.50;99.90
6102;DHT22;3081;50.584;7.032;2023-02-01T12:31:44;9.70;99.90
6102;DHT22;3081;50.584;7.032;2023-02-01T12:34:30;9.80;99.90
6102;DHT22;3081;50.584;7.032;2023-02-01T12:37:09;10.50;99.90
6102;DHT22;3081;50.584;7.032;2023-02-01T12:39:46;10.60;99.90
6102;DHT22;3081;50.584;7.032;2023-02-01T12:42:19;10.70;99.90
6102;DHT22;3081;50.584;7.032;2023-02-01T12:44:50;10.50;99.90
6102;DHT22;3081;50.584;7.032;2023-02-01T12:47:24;10.20;99.90
6102;DHT22;3081;50.584;7.032;2023-02-01T12:49:56;10.00;99.90
6102;DHT22;3081;50.584;7.032;2023-02-01T12:52:29;9.60;99.90
6102;DHT22;3081;50.584;7.032;2023-02-01T12:55:07;9.30;99.90
6102;DHT22;3081;50.584;7.032;2023-02-01T12:57:38;9.10;99.90
6102;DHT22;3081;50.584;7.032;2023-02-01T13:00:17;9.00;99.90
6102;DHT22;3081;50.584;7.032;2023-02-01T13:02:52;9.00;99.90
6102;DHT22;3081;50.584;7.032;2023-02-01T13:05:22;9.00;99.90
6102;DHT22;3081;50.584;7.032;2023-02-01T13:07:53;9.10;99.90
6102;DHT22;3081;50.584;7.032;2023-02-01T13:10:32;9.10;99.90
6102;DHT22;3081;50.584;7.032;2023-02-01T13:13:07;9.00;99.90
6102;DHT22;3081;50.584;7.032;2023-02-01T13:15:39;8.80;99.90
6102;DHT22;3081;50.584;7.032;2023-02-01T13:18:13;8.70;99.90
6102;DHT22;3081;50.584;7.032;2023-02-01T13:20:47;8.60;99.90
6102;DHT22;3081;50.584;7.032;2023-02-01T13:23:21;8.50;99.90
6102;DHT22;3081;50.584;7.032;2023-02-01T13:25:52;8.40;99.90
6102;DHT22;3081;50.584;7.032;2023-02-01T13:28:25;8.40;99.90
6102;DHT22;3081;50.584;7.032;2023-02-01T13:31:05;8.50;99.90
6102;DHT22;3081;50.584;7.032;2023-02-01T13:33:45;8.50;99.90
6102;DHT22;3081;50.584;7.032;2023-02-01T13:36:36;8.40;99.90
6102;DHT22;3081;50.584;7.032;2023-02-01T13:39:39;8.40;99.90
6102;DHT22;3081;50.584;7.032;2023-02-01T13:42:16;8.30;99.90
6102;DHT22;3081;50.584;7.032;2023-02-01T13:44:46;8.30;99.90
6102;DHT22;3081;50.584;7.032;2023-02-01T13:47:25;8.30;99.90
6102;DHT22;3081;50.584;7.032;2023-02-01T13:49:55;8.30;99.90
6102;DHT22;3081;50.584;7.032;2023-02-01T13:52:27;8.30;99.90
6102;DHT22;3081;50.584;7.032;2023-02-01T13:55:13;8.20;99.90
6102;DHT22;3081;50.584;7.032;2023-02-01T13:57:43;8.20;99.90
6102;DHT22;3081;50.584;7.032;2023-02-01T14:00:24;8.10;99.90
6102;DHT22;3081;50.584;7.032;2023-02-01T14:03:17;8.10;99.90
6102;DHT22;3081;50.584;7.032;2023-02-01T14:06:03;8.10;99.90
6102;DHT22;3081;50.584;7.032;2023-02-01T14:08:43;8.10;99.90
6102;DHT22;3081;50.584;7.032;2023-02-01T14:11:32;8.10;99.90
6102;DHT22;3081;50.584;7.032;2023-02-01T14:17:34;8.10;99.90
6102;DHT22;3081;50.584;7.032;2023-02-01T14:23:25;8.10;99.90
6102;DHT22;3081;50.584;7.032;2023-02-01T14:26:06;8.00;99.90
6102;DHT22;3081;50.584;7.032;2023-02-01T14:28:36;8.10;99.90
6102;DHT22;3081;50.584;7.032;2023-02-01T14:34:04;8.00;99.90
6102;DHT22;3081;50.584;7.032;2023-02-01T14:36:44;8.00;99.90
6102;DHT22;3081;50.584;7.032;2023-02-01T14:39:31;8.00;99.90
6102;DHT22;3081;50.584;7.032;2023-02-01T14:42:03;8.00;99.90
6102;DHT22;3081;50.584;7.032;2023-02-01T14:44:36;8.00;99.90
6102;DHT22;3081;50.584;7.032;2023-02-01T14:47:29;8.10;99.90
6102;DHT22;3081;50.584;7.032;2023-02-01T14:53:13;8.10;99.90
6102;DHT22;3081;50.584;7.032;2023-02-01T14:55:43;8.10;99.90
6102;DHT22;3081;50.584;7.032;2023-02-01T14:58:18;8.00;99.90
6102;DHT22;3081;50.584;7.032;2023-02-01T15:00:52;8.10;99.90
6102;DHT22;3081;50.584;7.032;2023-02-01T15:03:41;8.10;99.90
6102;DHT22;3081;50.584;7.032;2023-02-01T15:06:21;8.10;99.90
6102;DHT22;3081;50.584;7.032;2023-02-01T15:08:53;8.10;99.90
6102;DHT22;3081;50.584;7.032;2023-02-01T15:11:21;8.10;99.90
6102;DHT22;3081;50.584;7.032;2023-02-01T15:13:49;8.10;99.90
6102;DHT22;3081;50.584;7.032;2023-02-01T15:16:20;8.10;99.90
6102;DHT22;3081;50.584;7.032;2023-02-01T15:18:49;8.20;99.90
6102;DHT22;3081;50.584;7.032;2023-02-01T15:21:18;8.20;99.90
6102;DHT22;3081;50.584;7.032;2023-02-01T15:23:46;8.20;99.90
6102;DHT22;3081;50.584;7.032;2023-02-01T15:26:29;8.20;99.90
6102;DHT22;3081;50.584;7.032;2023-02-01T15:28:57;8.20;99.90
6102;DHT22;3081;50.584;7.032;2023-02-01T15:31:35;8.20;99.90
6102;DHT22;3081;50.584;7.032;2023-02-01T15:34:04;8.20;99.90
6102;DHT22;3081;50.584;7.032;2023-02-01T15:36:30;8.20;99.90
6102;DHT22;3081;50.584;7.032;2023-02-01T15:39:20;8.20;99.90
6102;DHT22;3081;50.584;7.032;2023-02-01T15:41:54;8.10;99.90
6102;DHT22;3081;50.584;7.032;2023-02-01T15:44:32;8.10;99.90
6102;DHT22;3081;50.584;7.032;2023-02-01T15:47:04;8.20;99.90
6102;DHT22;3081;50.584;7.032;2023-02-01T15:49:38;8.10;99.90
6102;DHT22;3081;50.584;7.032;2023-02-01T15:52:24;8.10;99.90
6102;DHT22;3081;50.584;7.032;2023-02-01T15:54:55;8.10;99.90
6102;DHT22;3081;50.584;7.032;2023-02-01T15:57:26;8.10;99.90
6102;DHT22;3081;50.584;7.032;2023-02-01T15:59:57;8.10;99.90
6102;DHT22;3081;50.584;7.032;2023-02-01T16:02:27;8.10;99.90
6102;DHT22;3081;50.584;7.032;2023-02-01T16:04:56;8.10;99.90
6102;DHT22;3081;50.584;7.032;2023-02-01T16:07:26;8.10;99.90
6102;DHT22;3081;50.584;7.032;2023-02-01T16:09:55;8.10;99.90
6102;DHT22;3081;50.584;7.032;2023-02-01T16:12:29;8.00;99.90
6102;DHT22;3081;50.584;7.032;2023-02-01T16:14:56;8.00;99.90
6102;DHT22;3081;50.584;7.032;2023-02-01T16:17:23;7.90;99.90
6102;DHT22;3081;50.584;7.032;2023-02-01T16:19:50;7.90;99.90
6102;DHT22;3081;50.584;7.032;2023-02-01T16:22:18;7.80;99.90
6102;DHT22;3081;50.584;7.032;2023-02-01T16:24:45;7.60;99.90
6102;DHT22;3081;50.584;7.032;2023-02-01T16:27:12;7.40;99.90
6102;DHT22;3081;50.584;7.032;2023-02-01T16:29:39;7.10;99.90
6102;DHT22;3081;50.584;7.032;2023-02-01T16:32:08;6.90;99.90
6102;DHT22;3081;50.584;7.032;2023-02-01T16:34:37;6.80;99.90
6102;DHT22;3081;50.584;7.032;2023-02-01T16:37:03;6.70;99.90
6102;DHT22;3081;50.584;7.032;2023-02-01T16:39:32;6.60;99.90
6102;DHT22;3081;50.584;7.032;2023-02-01T16:41:59;6.60;99.90
6102;DHT22;3081;50.584;7.032;2023-02-01T16:44:26;6.40;99.90
6102;DHT22;3081;50.584;7.032;2023-02-01T16:46:53;6.20;99.90
6102;DHT22;3081;50.584;7.032;2023-02-01T16:49:22;6.10;99.90
6102;DHT22;3081;50.584;7.032;2023-02-01T16:51:50;6.10;99.90
6102;DHT22;3081;50.584;7.032;2023-02-01T16:54:19;6.00;99.90
6102;DHT22;3081;50.584;7.032;2023-02-01T16:56:47;5.90;99.90
6102;DHT22;3081;50.584;7.032;2023-02-01T16:59:14;6.00;99.90
6102;DHT22;3081;50.584;7.032;2023-02-01T17:01:41;6.00;99.90
6102;DHT22;3081;50.584;7.032;2023-02-01T17:04:08;5.90;99.90
6102;DHT22;3081;50.584;7.032;2023-02-01T17:06:38;5.90;99.90
6102;DHT22;3081;50.584;7.032;2023-02-01T17:09:05;5.90;99.90
6102;DHT22;3081;50.584;7.032;2023-02-01T17:11:32;5.90;99.90